sensor_id;sensor_type;location;lat;lon;timestamp;P1;durP1;ratioP1;P2;durP2;ratioP2
31083;SDS011;36333;51.382;0.016;2022-08-21T00:02:18;21.98;;;3.58;;
31083;SDS011;36333;51.382;0.016;2022-08-21T00:04:54;17.52;;;3.67;;
31083;SDS011;36333;51.382;0.016;2022-08-21T00:07:24;21.55;;;3.50;;
31083;SDS011;36333;51.382;0.016;2022-08-21T00:09:52;21.45;;;3.40;;
31083;SDS011;36333;51.382;0.016;2022-08-21T00:12:20;24.63;;;3.83;;
31083;SDS011;36333;51.382;0.016;2022-08-21T00:14:48;22.35;;;3.97;;
31083;SDS011;36333;51.382;0.016;2022-08-21T00:17:20;23.20;;;3.70;;
31083;SDS011;36333;51.382;0.016;2022-08-21T00:19:49;22.20;;;3.83;;
31083;SDS011;36333;51.382;0.016;2022-08-21T00:22:17;21.70;;;3.83;;
31083;SDS011;36333;51.382;0.016;2022-08-21T00:24:44;18.75;;;3.90;;
31083;SDS011;36333;51.382;0.016;2022-08-21T00:27:12;18.48;;;3.78;;
31083;SDS011;36333;51.382;0.016;2022-08-21T00:29:40;22.73;;;3.97;;
31083;SDS011;36333;51.382;0.016;2022-08-21T00:32:07;26.35;;;4.68;;
31083;SDS011;36333;51.382;0.016;2022-08-21T00:34:35;19.73;;;3.90;;
31083;SDS011;36333;51.382;0.016;2022-08-21T00:37:02;21.30;;;3.88;;
31083;SDS011;36333;51.382;0.016;2022-08-21T00:41:58;25.45;;;4.68;;
31083;SDS011;36333;51.382;0.016;2022-08-21T00:44:26;29.92;;;3.88;;
31083;SDS011;36333;51.382;0.016;2022-08-21T00:46:53;18.25;;;3.53;;
31083;SDS011;36333;51.382;0.016;2022-08-21T00:49:21;24.10;;;4.68;;
31083;SDS011;36333;51.382;0.016;2022-08-21T00:51:50;18.85;;;4.15;;
31083;SDS011;36333;51.382;0.016;2022-08-21T00:54:22;22.67;;;4.00;;
31083;SDS011;36333;51.382;0.016;2022-08-21T00:56:56;20.10;;;3.67;;
31083;SDS011;36333;51.382;0.016;2022-08-21T00:59:28;21.73;;;4.07;;
31083;SDS011;36333;51.382;0.016;2022-08-21T01:02:01;23.52;;;3.72;;
31083;SDS011;36333;51.382;0.016;2022-08-21T01:04:30;25.15;;;4.03;;
31083;SDS011;36333;51.382;0.016;2022-08-21T01:06:58;21.90;;;4.15;;
31083;SDS011;36333;51.382;0.016;2022-08-21T01:09:25;21.95;;;4.18;;
31083;SDS011;36333;51.382;0.016;2022-08-21T01:11:53;28.48;;;4.20;;
31083;SDS011;36333;51.382;0.016;2022-08-21T01:14:21;17.83;;;3.88;;
31083;SDS011;36333;51.382;0.016;2022-08-21T01:16:51;19.33;;;3.65;;
31083;SDS011;36333;51.382;0.016;2022-08-21T01:19:19;23.48;;;4.13;;
31083;SDS011;36333;51.382;0.016;2022-08-21T01:21:48;22.67;;;3.63;;
31083;SDS011;36333;51.382;0.016;2022-08-21T01:24:16;24.05;;;4.25;;
31083;SDS011;36333;51.382;0.016;2022-08-21T01:32:16;22.25;;;3.75;;
31083;SDS011;36333;51.382;0.016;2022-08-21T01:34:46;28.45;;;4.20;;
31083;SDS011;36333;51.382;0.016;2022-08-21T01:37:15;24.38;;;4.30;;
31083;SDS011;36333;51.382;0.016;2022-08-21T01:39:44;27.90;;;3.88;;
31083;SDS011;36333;51.382;0.016;2022-08-21T01:42:12;20.35;;;3.65;;
31083;SDS011;36333;51.382;0.016;2022-08-21T01:47:10;21.40;;;3.90;;
31083;SDS011;36333;51.382;0.016;2022-08-21T01:49:41;25.05;;;3.72;;
31083;SDS011;36333;51.382;0.016;2022-08-21T01:52:10;22.77;;;3.90;;
31083;SDS011;36333;51.382;0.016;2022-08-21T01:54:38;28.67;;;4.47;;
31083;SDS011;36333;51.382;0.016;2022-08-21T01:57:07;21.67;;;3.97;;
31083;SDS011;36333;51.382;0.016;2022-08-21T01:59:36;20.85;;;3.95;;
31083;SDS011;36333;51.382;0.016;2022-08-21T02:02:05;19.92;;;3.90;;
31083;SDS011;36333;51.382;0.016;2022-08-21T02:04:33;30.05;;;4.28;;
31083;SDS011;36333;51.382;0.016;2022-08-21T02:07:00;26.02;;;4.25;;
31083;SDS011;36333;51.382;0.016;2022-08-21T02:09:28;22.25;;;4.15;;
31083;SDS011;36333;51.382;0.016;2022-08-21T02:11:57;26.67;;;4.63;;
31083;SDS011;36333;51.382;0.016;2022-08-21T02:14:24;26.05;;;4.00;;
31083;SDS011;36333;51.382;0.016;2022-08-21T02:16:58;25.17;;;4.22;;
31083;SDS011;36333;51.382;0.016;2022-08-21T02:19:36;20.53;;;3.80;;
31083;SDS011;36333;51.382;0.016;2022-08-21T02:22:08;26.73;;;4.00;;
31083;SDS011;36333;51.382;0.016;2022-08-21T02:24:36;23.40;;;3.80;;
31083;SDS011;36333;51.382;0.016;2022-08-21T02:27:23;37.83;;;4.72;;
31083;SDS011;36333;51.382;0.016;2022-08-21T02:29:54;27.52;;;4.60;;
31083;SDS011;36333;51.382;0.016;2022-08-21T02:32:23;21.92;;;3.72;;
31083;SDS011;36333;51.382;0.016;2022-08-21T02:34:52;25.00;;;3.85;;
31083;SDS011;36333;51.382;0.016;2022-08-21T02:37:20;26.80;;;4.18;;
31083;SDS011;36333;51.382;0.016;2022-08-21T02:39:49;27.50;;;4.28;;
31083;SDS011;36333;51.382;0.016;2022-08-21T02:42:17;26.45;;;4.50;;
31083;SDS011;36333;51.382;0.016;2022-08-21T02:44:45;17.60;;;3.70;;
31083;SDS011;36333;51.382;0.016;2022-08-21T02:47:13;31.08;;;3.90;;
31083;SDS011;36333;51.382;0.016;2022-08-21T02:49:41;20.15;;;3.78;;
31083;SDS011;36333;51.382;0.016;2022-08-21T02:52:08;27.38;;;4.35;;
31083;SDS011;36333;51.382;0.016;2022-08-21T02:54:36;21.17;;;3.95;;
31083;SDS011;36333;51.382;0.016;2022-08-21T02:57:03;19.67;;;3.85;;
31083;SDS011;36333;51.382;0.016;2022-08-21T02:59:31;25.60;;;4.07;;
31083;SDS011;36333;51.382;0.016;2022-08-21T03:01:59;27.25;;;4.45;;
31083;SDS011;36333;51.382;0.016;2022-08-21T03:04:26;26.67;;;4.00;;
31083;SDS011;36333;51.382;0.016;2022-08-21T03:06:54;26.05;;;4.28;;
31083;SDS011;36333;51.382;0.016;2022-08-21T03:09:21;25.90;;;4.05;;
31083;SDS011;36333;51.382;0.016;2022-08-21T03:11:49;17.17;;;3.75;;
31083;SDS011;36333;51.382;0.016;2022-08-21T03:14:18;25.48;;;4.20;;
31083;SDS011;36333;51.382;0.016;2022-08-21T03:16:46;24.58;;;4.07;;
31083;SDS011;36333;51.382;0.016;2022-08-21T03:19:13;19.25;;;4.13;;
31083;SDS011;36333;51.382;0.016;2022-08-21T03:21:44;23.67;;;3.88;;
31083;SDS011;36333;51.382;0.016;2022-08-21T03:24:11;26.95;;;4.45;;
31083;SDS011;36333;51.382;0.016;2022-08-21T03:26:39;26.77;;;3.88;;
31083;SDS011;36333;51.382;0.016;2022-08-21T03:29:07;26.88;;;3.67;;
31083;SDS011;36333;51.382;0.016;2022-08-21T03:31:35;22.17;;;3.70;;
31083;SDS011;36333;51.382;0.016;2022-08-21T03:34:02;23.10;;;3.97;;
31083;SDS011;36333;51.382;0.016;2022-08-21T03:36:30;25.15;;;4.30;;
31083;SDS011;36333;51.382;0.016;2022-08-21T03:38:57;24.90;;;4.30;;
31083;SDS011;36333;51.382;0.016;2022-08-21T03:41:25;24.63;;;4.32;;
31083;SDS011;36333;51.382;0.016;2022-08-21T03:43:53;29.95;;;4.20;;
31083;SDS011;36333;51.382;0.016;2022-08-21T03:46:20;20.77;;;4.45;;
31083;SDS011;36333;51.382;0.016;2022-08-21T03:48:48;27.00;;;4.18;;
31083;SDS011;36333;51.382;0.016;2022-08-21T03:51:16;25.27;;;3.80;;
31083;SDS011;36333;51.382;0.016;2022-08-21T03:53:44;25.85;;;3.88;;
31083;SDS011;36333;51.382;0.016;2022-08-21T03:56:11;34.40;;;4.72;;
31083;SDS011;36333;51.382;0.016;2022-08-21T03:58:39;25.75;;;4.30;;
31083;SDS011;36333;51.382;0.016;2022-08-21T04:01:07;20.88;;;3.90;;
31083;SDS011;36333;51.382;0.016;2022-08-21T04:03:36;24.17;;;4.18;;
31083;SDS011;36333;51.382;0.016;2022-08-21T04:06:04;27.55;;;4.28;;
31083;SDS011;36333;51.382;0.016;2022-08-21T04:11:00;19.70;;;3.63;;
31083;SDS011;36333;51.382;0.016;2022-08-21T04:13:28;21.33;;;3.72;;
31083;SDS011;36333;51.382;0.016;2022-08-21T04:15:56;23.70;;;3.83;;
31083;SDS011;36333;51.382;0.016;2022-08-21T04:18:25;24.90;;;4.18;;
31083;SDS011;36333;51.382;0.016;2022-08-21T04:20:53;24.23;;;4.03;;
31083;SDS011;36333;51.382;0.016;2022-08-21T04:23:24;23.20;;;3.97;;
31083;SDS011;36333;51.382;0.016;2022-08-21T04:25:55;27.58;;;4.28;;
31083;SDS011;36333;51.382;0.016;2022-08-21T04:28:24;30.95;;;4.40;;
31083;SDS011;36333;51.382;0.016;2022-08-21T04:30:56;20.67;;;4.00;;
31083;SDS011;36333;51.382;0.016;2022-08-21T04:35:52;26.63;;;4.10;;
31083;SDS011;36333;51.382;0.016;2022-08-21T04:40:48;24.27;;;3.88;;
31083;SDS011;36333;51.382;0.016;2022-08-21T04:43:16;27.23;;;4.47;;
31083;SDS011;36333;51.382;0.016;2022-08-21T04:45:45;23.83;;;4.13;;
31083;SDS011;36333;51.382;0.016;2022-08-21T04:48:15;28.10;;;4.43;;
31083;SDS011;36333;51.382;0.016;2022-08-21T04:50:54;28.33;;;4.13;;
31083;SDS011;36333;51.382;0.016;2022-08-21T04:53:31;20.30;;;3.97;;
31083;SDS011;36333;51.382;0.016;2022-08-21T04:56:07;27.50;;;4.47;;
31083;SDS011;36333;51.382;0.016;2022-08-21T04:58:39;19.98;;;4.15;;
31083;SDS011;36333;51.382;0.016;2022-08-21T05:01:09;25.38;;;4.10;;
31083;SDS011;36333;51.382;0.016;2022-08-21T05:03:42;30.10;;;4.60;;
31083;SDS011;36333;51.382;0.016;2022-08-21T05:06:12;22.67;;;4.28;;
31083;SDS011;36333;51.382;0.016;2022-08-21T05:08:41;21.50;;;3.90;;
31083;SDS011;36333;51.382;0.016;2022-08-21T05:11:12;26.92;;;4.28;;
31083;SDS011;36333;51.382;0.016;2022-08-21T05:16:09;26.35;;;4.10;;
31083;SDS011;36333;51.382;0.016;2022-08-21T05:18:36;30.05;;;4.90;;
31083;SDS011;36333;51.382;0.016;2022-08-21T05:21:04;20.58;;;3.97;;
31083;SDS011;36333;51.382;0.016;2022-08-21T05:23:32;25.25;;;3.97;;
31083;SDS011;36333;51.382;0.016;2022-08-21T05:25:59;26.85;;;4.82;;
31083;SDS011;36333;51.382;0.016;2022-08-21T05:28:27;24.75;;;4.32;;
31083;SDS011;36333;51.382;0.016;2022-08-21T05:30:55;29.25;;;4.22;;
31083;SDS011;36333;51.382;0.016;2022-08-21T05:33:23;27.08;;;4.95;;
31083;SDS011;36333;51.382;0.016;2022-08-21T05:35:51;25.15;;;4.38;;
31083;SDS011;36333;51.382;0.016;2022-08-21T05:38:23;21.75;;;3.90;;
31083;SDS011;36333;51.382;0.016;2022-08-21T05:40:52;23.17;;;4.25;;
31083;SDS011;36333;51.382;0.016;2022-08-21T05:45:47;21.67;;;3.92;;
31083;SDS011;36333;51.382;0.016;2022-08-21T05:48:22;18.48;;;4.15;;
31083;SDS011;36333;51.382;0.016;2022-08-21T05:50:51;20.38;;;4.13;;
31083;SDS011;36333;51.382;0.016;2022-08-21T05:53:21;22.65;;;3.88;;
31083;SDS011;36333;51.382;0.016;2022-08-21T05:55:51;26.35;;;4.15;;
31083;SDS011;36333;51.382;0.016;2022-08-21T05:58:20;21.15;;;3.53;;
31083;SDS011;36333;51.382;0.016;2022-08-21T06:00:50;21.60;;;3.80;;
31083;SDS011;36333;51.382;0.016;2022-08-21T06:03:23;21.95;;;3.78;;
31083;SDS011;36333;51.382;0.016;2022-08-21T06:05:53;29.17;;;4.05;;
31083;SDS011;36333;51.382;0.016;2022-08-21T06:08:21;20.27;;;3.85;;
31083;SDS011;36333;51.382;0.016;2022-08-21T06:10:51;21.27;;;3.60;;
31083;SDS011;36333;51.382;0.016;2022-08-21T06:13:20;20.52;;;3.80;;
31083;SDS011;36333;51.382;0.016;2022-08-21T06:15:49;21.42;;;3.78;;
31083;SDS011;36333;51.382;0.016;2022-08-21T06:20:54;23.00;;;3.25;;
31083;SDS011;36333;51.382;0.016;2022-08-21T06:23:23;19.67;;;3.80;;
31083;SDS011;36333;51.382;0.016;2022-08-21T06:25:59;20.33;;;3.65;;
31083;SDS011;36333;51.382;0.016;2022-08-21T06:28:31;21.90;;;3.70;;
31083;SDS011;36333;51.382;0.016;2022-08-21T06:31:00;19.90;;;3.20;;
31083;SDS011;36333;51.382;0.016;2022-08-21T06:33:27;21.52;;;3.92;;
31083;SDS011;36333;51.382;0.016;2022-08-21T06:35:58;19.33;;;3.45;;
31083;SDS011;36333;51.382;0.016;2022-08-21T06:38:26;18.17;;;3.40;;
31083;SDS011;36333;51.382;0.016;2022-08-21T06:40:54;25.00;;;4.10;;
31083;SDS011;36333;51.382;0.016;2022-08-21T06:43:23;21.63;;;4.05;;
31083;SDS011;36333;51.382;0.016;2022-08-21T06:46:06;19.80;;;4.30;;
31083;SDS011;36333;51.382;0.016;2022-08-21T06:48:34;21.80;;;4.10;;
31083;SDS011;36333;51.382;0.016;2022-08-21T06:51:02;16.40;;;3.65;;
31083;SDS011;36333;51.382;0.016;2022-08-21T06:53:30;21.77;;;4.03;;
31083;SDS011;36333;51.382;0.016;2022-08-21T06:55:58;20.88;;;4.15;;
31083;SDS011;36333;51.382;0.016;2022-08-21T06:58:25;18.27;;;3.85;;
31083;SDS011;36333;51.382;0.016;2022-08-21T07:00:53;26.15;;;4.13;;
31083;SDS011;36333;51.382;0.016;2022-08-21T07:03:28;22.10;;;4.10;;
31083;SDS011;36333;51.382;0.016;2022-08-21T07:05:57;20.10;;;3.97;;
31083;SDS011;36333;51.382;0.016;2022-08-21T07:08:26;20.85;;;3.97;;
31083;SDS011;36333;51.382;0.016;2022-08-21T07:10:55;22.23;;;3.95;;
31083;SDS011;36333;51.382;0.016;2022-08-21T07:13:24;18.02;;;3.45;;
31083;SDS011;36333;51.382;0.016;2022-08-21T07:15:52;23.98;;;3.97;;
31083;SDS011;36333;51.382;0.016;2022-08-21T07:18:20;16.60;;;3.58;;
31083;SDS011;36333;51.382;0.016;2022-08-21T07:20:47;16.63;;;3.80;;
31083;SDS011;36333;51.382;0.016;2022-08-21T07:25:53;19.15;;;3.58;;
31083;SDS011;36333;51.382;0.016;2022-08-21T07:30:52;20.05;;;3.80;;
31083;SDS011;36333;51.382;0.016;2022-08-21T07:33:21;19.95;;;3.63;;
31083;SDS011;36333;51.382;0.016;2022-08-21T07:35:50;17.83;;;3.35;;
31083;SDS011;36333;51.382;0.016;2022-08-21T07:38:17;18.58;;;3.20;;
31083;SDS011;36333;51.382;0.016;2022-08-21T07:43:14;17.77;;;3.47;;
31083;SDS011;36333;51.382;0.016;2022-08-21T07:45:45;12.07;;;3.10;;
31083;SDS011;36333;51.382;0.016;2022-08-21T07:48:16;13.55;;;3.00;;
31083;SDS011;36333;51.382;0.016;2022-08-21T07:50:43;18.65;;;3.22;;
31083;SDS011;36333;51.382;0.016;2022-08-21T07:53:11;15.93;;;3.03;;
31083;SDS011;36333;51.382;0.016;2022-08-21T07:55:41;12.70;;;2.67;;
31083;SDS011;36333;51.382;0.016;2022-08-21T07:58:09;17.25;;;3.00;;
31083;SDS011;36333;51.382;0.016;2022-08-21T08:00:37;12.93;;;2.45;;
31083;SDS011;36333;51.382;0.016;2022-08-21T08:03:04;15.07;;;2.70;;
31083;SDS011;36333;51.382;0.016;2022-08-21T08:05:34;12.73;;;2.75;;
31083;SDS011;36333;51.382;0.016;2022-08-21T08:08:04;17.85;;;3.08;;
31083;SDS011;36333;51.382;0.016;2022-08-21T08:10:31;16.60;;;3.13;;
31083;SDS011;36333;51.382;0.016;2022-08-21T08:12:59;16.05;;;2.80;;
31083;SDS011;36333;51.382;0.016;2022-08-21T08:15:28;12.52;;;2.50;;
31083;SDS011;36333;51.382;0.016;2022-08-21T08:18:03;14.32;;;2.45;;
31083;SDS011;36333;51.382;0.016;2022-08-21T08:20:31;14.13;;;2.97;;
31083;SDS011;36333;51.382;0.016;2022-08-21T08:22:58;15.48;;;2.85;;
31083;SDS011;36333;51.382;0.016;2022-08-21T08:28:03;16.77;;;2.78;;
31083;SDS011;36333;51.382;0.016;2022-08-21T08:30:52;19.55;;;2.92;;
31083;SDS011;36333;51.382;0.016;2022-08-21T08:33:20;15.95;;;2.65;;
31083;SDS011;36333;51.382;0.016;2022-08-21T08:35:50;15.18;;;2.95;;
31083;SDS011;36333;51.382;0.016;2022-08-21T08:38:20;13.57;;;2.75;;
31083;SDS011;36333;51.382;0.016;2022-08-21T08:43:40;16.45;;;2.88;;
31083;SDS011;36333;51.382;0.016;2022-08-21T08:46:17;18.27;;;2.83;;
31083;SDS011;36333;51.382;0.016;2022-08-21T08:48:54;14.20;;;2.47;;
31083;SDS011;36333;51.382;0.016;2022-08-21T08:51:51;13.70;;;2.47;;
31083;SDS011;36333;51.382;0.016;2022-08-21T08:56:54;16.88;;;2.85;;
31083;SDS011;36333;51.382;0.016;2022-08-21T08:59:25;13.63;;;2.75;;
31083;SDS011;36333;51.382;0.016;2022-08-21T09:02:55;12.52;;;2.65;;
31083;SDS011;36333;51.382;0.016;2022-08-21T09:05:40;12.35;;;2.83;;
31083;SDS011;36333;51.382;0.016;2022-08-21T09:08:34;12.18;;;2.53;;
31083;SDS011;36333;51.382;0.016;2022-08-21T09:11:31;13.35;;;2.28;;
31083;SDS011;36333;51.382;0.016;2022-08-21T09:23:23;16.02;;;2.10;;
31083;SDS011;36333;51.382;0.016;2022-08-21T09:29:05;11.32;;;2.47;;
31083;SDS011;36333;51.382;0.016;2022-08-21T09:31:34;8.82;;;1.92;;
31083;SDS011;36333;51.382;0.016;2022-08-21T09:34:07;8.55;;;2.22;;
31083;SDS011;36333;51.382;0.016;2022-08-21T09:36:47;11.73;;;2.20;;
31083;SDS011;36333;51.382;0.016;2022-08-21T09:39:31;8.43;;;1.98;;
31083;SDS011;36333;51.382;0.016;2022-08-21T09:42:07;11.85;;;2.20;;
31083;SDS011;36333;51.382;0.016;2022-08-21T09:44:41;11.93;;;2.10;;
31083;SDS011;36333;51.382;0.016;2022-08-21T09:47:11;9.75;;;2.40;;
31083;SDS011;36333;51.382;0.016;2022-08-21T09:49:42;10.18;;;2.22;;
31083;SDS011;36333;51.382;0.016;2022-08-21T09:52:18;14.15;;;2.08;;
31083;SDS011;36333;51.382;0.016;2022-08-21T09:54:53;9.23;;;2.17;;
31083;SDS011;36333;51.382;0.016;2022-08-21T09:57:23;8.70;;;2.30;;
31083;SDS011;36333;51.382;0.016;2022-08-21T10:00:44;12.02;;;2.53;;
31083;SDS011;36333;51.382;0.016;2022-08-21T10:03:15;15.23;;;2.60;;
31083;SDS011;36333;51.382;0.016;2022-08-21T10:08:25;12.80;;;2.55;;
31083;SDS011;36333;51.382;0.016;2022-08-21T10:11:06;10.85;;;2.25;;
31083;SDS011;36333;51.382;0.016;2022-08-21T10:13:48;13.50;;;3.03;;
31083;SDS011;36333;51.382;0.016;2022-08-21T10:17:03;13.18;;;2.35;;
31083;SDS011;36333;51.382;0.016;2022-08-21T10:22:45;11.20;;;2.30;;
31083;SDS011;36333;51.382;0.016;2022-08-21T10:31:31;10.05;;;2.30;;
31083;SDS011;36333;51.382;0.016;2022-08-21T10:34:15;12.10;;;2.30;;
31083;SDS011;36333;51.382;0.016;2022-08-21T10:36:50;9.38;;;2.30;;
31083;SDS011;36333;51.382;0.016;2022-08-21T10:39:41;11.77;;;2.17;;
31083;SDS011;36333;51.382;0.016;2022-08-21T10:42:38;8.75;;;2.40;;
31083;SDS011;36333;51.382;0.016;2022-08-21T10:48:06;9.90;;;2.17;;
31083;SDS011;36333;51.382;0.016;2022-08-21T10:50:43;7.80;;;2.03;;
31083;SDS011;36333;51.382;0.016;2022-08-21T10:53:39;7.68;;;2.20;;
31083;SDS011;36333;51.382;0.016;2022-08-21T10:56:13;10.80;;;2.35;;
31083;SDS011;36333;51.382;0.016;2022-08-21T10:59:07;10.15;;;2.53;;
31083;SDS011;36333;51.382;0.016;2022-08-21T11:01:52;8.10;;;2.15;;
31083;SDS011;36333;51.382;0.016;2022-08-21T11:07:18;9.02;;;2.45;;
31083;SDS011;36333;51.382;0.016;2022-08-21T11:10:19;9.30;;;2.50;;
31083;SDS011;36333;51.382;0.016;2022-08-21T11:13:07;10.55;;;2.38;;
31083;SDS011;36333;51.382;0.016;2022-08-21T11:18:31;11.27;;;2.42;;
31083;SDS011;36333;51.382;0.016;2022-08-21T11:21:38;8.95;;;2.65;;
31083;SDS011;36333;51.382;0.016;2022-08-21T11:24:17;12.52;;;2.65;;
31083;SDS011;36333;51.382;0.016;2022-08-21T11:27:03;9.90;;;2.53;;
31083;SDS011;36333;51.382;0.016;2022-08-21T11:29:37;11.27;;;2.65;;
31083;SDS011;36333;51.382;0.016;2022-08-21T11:34:43;12.70;;;2.83;;
31083;SDS011;36333;51.382;0.016;2022-08-21T11:49:04;13.10;;;2.97;;
31083;SDS011;36333;51.382;0.016;2022-08-21T11:51:51;11.38;;;2.70;;
31083;SDS011;36333;51.382;0.016;2022-08-21T11:57:35;10.38;;;2.65;;
31083;SDS011;36333;51.382;0.016;2022-08-21T12:00:13;12.23;;;2.70;;
31083;SDS011;36333;51.382;0.016;2022-08-21T12:02:54;12.85;;;2.33;;
31083;SDS011;36333;51.382;0.016;2022-08-21T12:05:30;10.48;;;2.90;;
31083;SDS011;36333;51.382;0.016;2022-08-21T12:08:04;11.75;;;1.98;;
31083;SDS011;36333;51.382;0.016;2022-08-21T12:10:38;14.00;;;2.97;;
31083;SDS011;36333;51.382;0.016;2022-08-21T12:13:11;16.27;;;2.58;;
31083;SDS011;36333;51.382;0.016;2022-08-21T12:18:34;10.38;;;2.45;;
31083;SDS011;36333;51.382;0.016;2022-08-21T12:24:03;10.32;;;2.65;;
31083;SDS011;36333;51.382;0.016;2022-08-21T12:32:00;9.88;;;2.42;;
31083;SDS011;36333;51.382;0.016;2022-08-21T12:34:53;11.38;;;2.50;;
31083;SDS011;36333;51.382;0.016;2022-08-21T12:37:39;10.27;;;2.70;;
31083;SDS011;36333;51.382;0.016;2022-08-21T12:40:17;8.60;;;2.28;;
31083;SDS011;36333;51.382;0.016;2022-08-21T12:42:52;8.63;;;2.47;;
31083;SDS011;36333;51.382;0.016;2022-08-21T12:45:44;9.27;;;2.47;;
31083;SDS011;36333;51.382;0.016;2022-08-21T12:48:25;12.85;;;2.70;;
31083;SDS011;36333;51.382;0.016;2022-08-21T12:51:18;13.20;;;2.42;;
31083;SDS011;36333;51.382;0.016;2022-08-21T12:53:56;9.77;;;2.65;;
31083;SDS011;36333;51.382;0.016;2022-08-21T12:56:27;10.38;;;2.35;;
31083;SDS011;36333;51.382;0.016;2022-08-21T12:59:11;12.20;;;3.50;;
31083;SDS011;36333;51.382;0.016;2022-08-21T13:01:46;8.77;;;2.38;;
31083;SDS011;36333;51.382;0.016;2022-08-21T13:04:36;10.65;;;2.75;;
31083;SDS011;36333;51.382;0.016;2022-08-21T13:07:11;13.48;;;3.10;;
31083;SDS011;36333;51.382;0.016;2022-08-21T13:12:24;10.82;;;2.90;;
31083;SDS011;36333;51.382;0.016;2022-08-21T13:14:59;15.85;;;3.25;;
31083;SDS011;36333;51.382;0.016;2022-08-21T13:17:36;10.43;;;2.80;;
31083;SDS011;36333;51.382;0.016;2022-08-21T13:20:08;12.80;;;2.63;;
31083;SDS011;36333;51.382;0.016;2022-08-21T13:23:19;9.10;;;2.55;;
31083;SDS011;36333;51.382;0.016;2022-08-21T13:26:00;14.63;;;2.97;;
31083;SDS011;36333;51.382;0.016;2022-08-21T13:28:33;10.73;;;3.13;;
31083;SDS011;36333;51.382;0.016;2022-08-21T13:31:06;12.13;;;2.60;;
31083;SDS011;36333;51.382;0.016;2022-08-21T13:33:37;14.25;;;2.80;;
31083;SDS011;36333;51.382;0.016;2022-08-21T13:36:09;14.10;;;2.60;;
31083;SDS011;36333;51.382;0.016;2022-08-21T13:38:41;9.68;;;2.55;;
31083;SDS011;36333;51.382;0.016;2022-08-21T13:41:21;11.00;;;2.90;;
31083;SDS011;36333;51.382;0.016;2022-08-21T13:46:53;10.63;;;2.70;;
31083;SDS011;36333;51.382;0.016;2022-08-21T13:49:33;11.43;;;2.80;;
31083;SDS011;36333;51.382;0.016;2022-08-21T13:52:03;10.45;;;2.55;;
31083;SDS011;36333;51.382;0.016;2022-08-21T13:54:41;9.13;;;2.40;;
31083;SDS011;36333;51.382;0.016;2022-08-21T13:57:17;9.13;;;2.92;;
31083;SDS011;36333;51.382;0.016;2022-08-21T14:00:24;13.55;;;3.15;;
31083;SDS011;36333;51.382;0.016;2022-08-21T14:03:11;8.88;;;2.40;;
31083;SDS011;36333;51.382;0.016;2022-08-21T14:06:12;10.52;;;2.90;;
31083;SDS011;36333;51.382;0.016;2022-08-21T14:09:03;8.88;;;2.58;;
31083;SDS011;36333;51.382;0.016;2022-08-21T14:11:36;8.60;;;2.58;;
31083;SDS011;36333;51.382;0.016;2022-08-21T14:17:13;16.73;;;3.00;;
31083;SDS011;36333;51.382;0.016;2022-08-21T14:20:00;12.88;;;3.03;;
31083;SDS011;36333;51.382;0.016;2022-08-21T14:22:37;10.45;;;2.50;;
31083;SDS011;36333;51.382;0.016;2022-08-21T14:25:36;11.00;;;2.75;;
31083;SDS011;36333;51.382;0.016;2022-08-21T14:31:15;8.70;;;2.80;;
31083;SDS011;36333;51.382;0.016;2022-08-21T14:33:48;10.55;;;2.70;;
31083;SDS011;36333;51.382;0.016;2022-08-21T14:38:55;11.32;;;3.08;;
31083;SDS011;36333;51.382;0.016;2022-08-21T14:41:23;12.25;;;3.22;;
31083;SDS011;36333;51.382;0.016;2022-08-21T14:43:55;9.00;;;3.08;;
31083;SDS011;36333;51.382;0.016;2022-08-21T14:46:36;9.60;;;2.97;;
31083;SDS011;36333;51.382;0.016;2022-08-21T14:49:23;9.00;;;3.08;;
31083;SDS011;36333;51.382;0.016;2022-08-21T14:51:56;10.85;;;2.95;;
31083;SDS011;36333;51.382;0.016;2022-08-21T14:54:43;14.18;;;3.05;;
31083;SDS011;36333;51.382;0.016;2022-08-21T14:57:56;8.85;;;2.67;;
31083;SDS011;36333;51.382;0.016;2022-08-21T15:00:35;9.35;;;3.08;;
31083;SDS011;36333;51.382;0.016;2022-08-21T15:05:30;10.50;;;3.83;;
31083;SDS011;36333;51.382;0.016;2022-08-21T15:08:00;11.05;;;3.50;;
31083;SDS011;36333;51.382;0.016;2022-08-21T15:10:29;10.60;;;3.08;;
31083;SDS011;36333;51.382;0.016;2022-08-21T15:12:57;7.43;;;2.80;;
31083;SDS011;36333;51.382;0.016;2022-08-21T15:15:25;12.05;;;3.00;;
31083;SDS011;36333;51.382;0.016;2022-08-21T15:17:53;13.00;;;3.17;;
31083;SDS011;36333;51.382;0.016;2022-08-21T15:20:21;7.47;;;2.85;;
31083;SDS011;36333;51.382;0.016;2022-08-21T15:22:49;11.05;;;2.78;;
31083;SDS011;36333;51.382;0.016;2022-08-21T15:25:16;11.02;;;2.90;;
31083;SDS011;36333;51.382;0.016;2022-08-21T15:27:44;11.70;;;2.97;;
31083;SDS011;36333;51.382;0.016;2022-08-21T15:30:12;11.32;;;3.25;;
31083;SDS011;36333;51.382;0.016;2022-08-21T15:35:08;12.43;;;2.83;;
31083;SDS011;36333;51.382;0.016;2022-08-21T15:37:36;9.35;;;2.85;;
31083;SDS011;36333;51.382;0.016;2022-08-21T15:40:04;11.35;;;2.88;;
31083;SDS011;36333;51.382;0.016;2022-08-21T15:42:34;9.70;;;2.95;;
31083;SDS011;36333;51.382;0.016;2022-08-21T15:45:02;10.07;;;2.85;;
31083;SDS011;36333;51.382;0.016;2022-08-21T15:47:35;11.18;;;2.80;;
31083;SDS011;36333;51.382;0.016;2022-08-21T15:50:06;9.73;;;2.85;;
31083;SDS011;36333;51.382;0.016;2022-08-21T15:52:35;9.38;;;3.08;;
31083;SDS011;36333;51.382;0.016;2022-08-21T15:57:36;8.15;;;2.70;;
31083;SDS011;36333;51.382;0.016;2022-08-21T16:00:17;11.10;;;3.00;;
31083;SDS011;36333;51.382;0.016;2022-08-21T16:02:48;8.75;;;2.70;;
31083;SDS011;36333;51.382;0.016;2022-08-21T16:05:18;8.80;;;2.70;;
31083;SDS011;36333;51.382;0.016;2022-08-21T16:07:47;14.15;;;2.90;;
31083;SDS011;36333;51.382;0.016;2022-08-21T16:10:17;11.00;;;3.30;;
31083;SDS011;36333;51.382;0.016;2022-08-21T16:12:52;11.30;;;3.22;;
31083;SDS011;36333;51.382;0.016;2022-08-21T16:15:25;12.98;;;2.88;;
31083;SDS011;36333;51.382;0.016;2022-08-21T16:17:53;11.45;;;3.47;;
31083;SDS011;36333;51.382;0.016;2022-08-21T16:20:23;11.18;;;2.97;;
31083;SDS011;36333;51.382;0.016;2022-08-21T16:22:54;13.00;;;3.28;;
31083;SDS011;36333;51.382;0.016;2022-08-21T16:25:23;9.52;;;3.30;;
31083;SDS011;36333;51.382;0.016;2022-08-21T16:27:53;9.70;;;3.22;;
31083;SDS011;36333;51.382;0.016;2022-08-21T16:30:26;10.20;;;2.85;;
31083;SDS011;36333;51.382;0.016;2022-08-21T16:32:54;10.73;;;3.30;;
31083;SDS011;36333;51.382;0.016;2022-08-21T16:35:23;11.95;;;3.45;;
31083;SDS011;36333;51.382;0.016;2022-08-21T16:37:59;9.55;;;3.25;;
31083;SDS011;36333;51.382;0.016;2022-08-21T16:40:28;7.97;;;3.15;;
31083;SDS011;36333;51.382;0.016;2022-08-21T16:42:56;12.85;;;4.07;;
31083;SDS011;36333;51.382;0.016;2022-08-21T16:45:24;10.60;;;3.40;;
31083;SDS011;36333;51.382;0.016;2022-08-21T16:47:58;8.95;;;3.17;;
31083;SDS011;36333;51.382;0.016;2022-08-21T16:52:53;10.27;;;2.75;;
31083;SDS011;36333;51.382;0.016;2022-08-21T16:55:21;8.82;;;2.63;;
31083;SDS011;36333;51.382;0.016;2022-08-21T16:57:49;11.43;;;3.05;;
31083;SDS011;36333;51.382;0.016;2022-08-21T17:00:16;8.23;;;2.80;;
31083;SDS011;36333;51.382;0.016;2022-08-21T17:02:45;9.73;;;2.83;;
31083;SDS011;36333;51.382;0.016;2022-08-21T17:05:15;10.77;;;3.00;;
31083;SDS011;36333;51.382;0.016;2022-08-21T17:10:14;11.40;;;2.90;;
31083;SDS011;36333;51.382;0.016;2022-08-21T17:12:43;10.07;;;2.90;;
31083;SDS011;36333;51.382;0.016;2022-08-21T17:17:50;13.48;;;3.20;;
31083;SDS011;36333;51.382;0.016;2022-08-21T17:20:18;18.73;;;3.28;;
31083;SDS011;36333;51.382;0.016;2022-08-21T17:22:52;14.10;;;3.10;;